sensor_id;sensor_type;location;lat;lon;timestamp;temperature;humidity
60293;DHT22;52402;52.670;6.750;2023-08-01T00:00:21;16.00;99.90
60293;DHT22;52402;52.670;6.750;2023-08-01T00:02:46;16.00;99.90
60293;DHT22;52402;52.670;6.750;2023-08-01T00:05:12;16.00;99.90
60293;DHT22;52402;52.670;6.750;2023-08-01T00:07:38;16.00;99.90
60293;DHT22;52402;52.670;6.750;2023-08-01T00:10:04;16.00;99.90
60293;DHT22;52402;52.670;6.750;2023-08-01T00:12:30;16.00;99.90
60293;DHT22;52402;52.670;6.750;2023-08-01T00:14:55;16.00;99.90
60293;DHT22;52402;52.670;6.750;2023-08-01T00:17:21;16.00;99.90
60293;DHT22;52402;52.670;6.750;2023-08-01T00:19:47;16.10;99.90
60293;DHT22;52402;52.670;6.750;2023-08-01T00:22:12;16.00;99.90
60293;DHT22;52402;52.670;6.750;2023-08-01T00:24:38;16.10;99.90
60293;DHT22;52402;52.670;6.750;2023-08-01T00:27:04;16.10;99.90
60293;DHT22;52402;52.670;6.750;2023-08-01T00:29:30;16.00;99.90
60293;DHT22;52402;52.670;6.750;2023-08-01T00:31:55;16.00;99.90
60293;DHT22;52402;52.670;6.750;2023-08-01T00:34:24;16.00;99.90
60293;DHT22;52402;52.670;6.750;2023-08-01T00:36:50;16.00;99.90
60293;DHT22;52402;52.670;6.750;2023-08-01T00:39:15;16.00;99.90
60293;DHT22;52402;52.670;6.750;2023-08-01T00:41:41;16.00;99.90
60293;DHT22;52402;52.670;6.750;2023-08-01T00:44:07;16.00;99.90
60293;DHT22;52402;52.670;6.750;2023-08-01T00:46:32;16.00;99.90
60293;DHT22;52402;52.670;6.750;2023-08-01T00:48:58;15.90;99.90
60293;DHT22;52402;52.670;6.750;2023-08-01T00:51:29;15.90;99.90
60293;DHT22;52402;52.670;6.750;2023-08-01T00:53:57;15.90;99.90
60293;DHT22;52402;52.670;6.750;2023-08-01T00:56:23;15.90;99.90
60293;DHT22;52402;52.670;6.750;2023-08-01T00:58:49;15.90;99.90
60293;DHT22;52402;52.670;6.750;2023-08-01T01:01:14;15.90;99.90
60293;DHT22;52402;52.670;6.750;2023-08-01T01:03:40;15.90;99.90
60293;DHT22;52402;52.670;6.750;2023-08-01T01:06:09;15.90;99.90
60293;DHT22;52402;52.670;6.750;2023-08-01T01:08:37;15.90;99.90
60293;DHT22;52402;52.670;6.750;2023-08-01T01:11:02;15.90;99.90
60293;DHT22;52402;52.670;6.750;2023-08-01T01:13:30;15.90;99.90
60293;DHT22;52402;52.670;6.750;2023-08-01T01:15:55;15.90;99.90
60293;DHT22;52402;52.670;6.750;2023-08-01T01:18:21;15.90;99.90
60293;DHT22;52402;52.670;6.750;2023-08-01T01:20:46;15.90;99.90
60293;DHT22;52402;52.670;6.750;2023-08-01T01:23:12;15.90;99.90
60293;DHT22;52402;52.670;6.750;2023-08-01T01:25:39;15.90;99.90
60293;DHT22;52402;52.670;6.750;2023-08-01T01:28:06;15.90;99.90
60293;DHT22;52402;52.670;6.750;2023-08-01T01:30:33;15.90;99.90
60293;DHT22;52402;52.670;6.750;2023-08-01T01:33:00;15.80;99.90
60293;DHT22;52402;52.670;6.750;2023-08-01T01:35:26;15.80;99.90
60293;DHT22;52402;52.670;6.750;2023-08-01T01:37:52;15.90;99.90
60293;DHT22;52402;52.670;6.750;2023-08-01T01:40:17;15.90;99.90
60293;DHT22;52402;52.670;6.750;2023-08-01T01:42:43;15.80;99.90
60293;DHT22;52402;52.670;6.750;2023-08-01T01:45:09;15.80;99.90
60293;DHT22;52402;52.670;6.750;2023-08-01T01:47:35;15.90;99.90
60293;DHT22;52402;52.670;6.750;2023-08-01T01:52:36;15.80;99.90
60293;DHT22;52402;52.670;6.750;2023-08-01T01:55:02;15.80;99.90
60293;DHT22;52402;52.670;6.750;2023-08-01T01:57:28;15.80;99.90
60293;DHT22;52402;52.670;6.750;2023-08-01T01:59:53;15.80;99.90
60293;DHT22;52402;52.670;6.750;2023-08-01T02:02:19;15.80;99.90
60293;DHT22;52402;52.670;6.750;2023-08-01T02:04:46;15.70;99.90
60293;DHT22;52402;52.670;6.750;2023-08-01T02:07:12;15.70;99.90
60293;DHT22;52402;52.670;6.750;2023-08-01T02:09:39;15.60;99.90
60293;DHT22;52402;52.670;6.750;2023-08-01T02:12:05;15.60;99.90
60293;DHT22;52402;52.670;6.750;2023-08-01T02:14:33;15.50;99.90
60293;DHT22;52402;52.670;6.750;2023-08-01T02:16:58;15.50;99.90
60293;DHT22;52402;52.670;6.750;2023-08-01T02:19:24;15.40;99.90
60293;DHT22;52402;52.670;6.750;2023-08-01T02:21:49;15.40;99.90
60293;DHT22;52402;52.670;6.750;2023-08-01T02:24:15;15.40;99.90
60293;DHT22;52402;52.670;6.750;2023-08-01T02:26:41;15.30;99.90
60293;DHT22;52402;52.670;6.750;2023-08-01T02:29:06;15.30;99.90
60293;DHT22;52402;52.670;6.750;2023-08-01T02:31:32;15.30;99.90
60293;DHT22;52402;52.670;6.750;2023-08-01T02:33:57;15.20;99.90
60293;DHT22;52402;52.670;6.750;2023-08-01T02:36:23;15.20;99.90
60293;DHT22;52402;52.670;6.750;2023-08-01T02:38:49;15.20;99.90
60293;DHT22;52402;52.670;6.750;2023-08-01T02:41:14;15.20;99.90
60293;DHT22;52402;52.670;6.750;2023-08-01T02:43:40;15.20;99.90
60293;DHT22;52402;52.670;6.750;2023-08-01T02:46:06;15.20;99.90
60293;DHT22;52402;52.670;6.750;2023-08-01T02:48:32;15.20;99.90
60293;DHT22;52402;52.670;6.750;2023-08-01T02:50:58;15.20;99.90
60293;DHT22;52402;52.670;6.750;2023-08-01T02:53:24;15.20;99.90
60293;DHT22;52402;52.670;6.750;2023-08-01T02:55:50;15.20;99.90
60293;DHT22;52402;52.670;6.750;2023-08-01T02:58:16;15.20;99.90
60293;DHT22;52402;52.670;6.750;2023-08-01T03:00:42;15.20;99.90
60293;DHT22;52402;52.670;6.750;2023-08-01T03:03:07;15.20;99.90
60293;DHT22;52402;52.670;6.750;2023-08-01T03:05:35;15.20;99.90
60293;DHT22;52402;52.670;6.750;2023-08-01T03:08:01;15.20;99.90
60293;DHT22;52402;52.670;6.750;2023-08-01T03:10:27;15.20;99.90
60293;DHT22;52402;52.670;6.750;2023-08-01T03:12:53;15.10;99.90
60293;DHT22;52402;52.670;6.750;2023-08-01T03:15:18;15.10;99.90
60293;DHT22;52402;52.670;6.750;2023-08-01T03:17:44;15.10;99.90
60293;DHT22;52402;52.670;6.750;2023-08-01T03:20:10;15.10;99.90
60293;DHT22;52402;52.670;6.750;2023-08-01T03:22:38;15.10;99.90
60293;DHT22;52402;52.670;6.750;2023-08-01T03:25:05;15.10;99.90
60293;DHT22;52402;52.670;6.750;2023-08-01T03:27:33;15.10;99.90
60293;DHT22;52402;52.670;6.750;2023-08-01T03:29:59;15.00;99.90
60293;DHT22;52402;52.670;6.750;2023-08-01T03:32:25;15.00;99.90
60293;DHT22;52402;52.670;6.750;2023-08-01T03:34:50;15.00;99.90
60293;DHT22;52402;52.670;6.750;2023-08-01T03:37:16;15.00;99.90
60293;DHT22;52402;52.670;6.750;2023-08-01T03:39:43;15.00;99.90
60293;DHT22;52402;52.670;6.750;2023-08-01T03:42:09;15.00;99.90
60293;DHT22;52402;52.670;6.750;2023-08-01T03:44:34;15.00;99.90
60293;DHT22;52402;52.670;6.750;2023-08-01T03:47:00;15.00;99.90
60293;DHT22;52402;52.670;6.750;2023-08-01T03:49:26;15.00;99.90
60293;DHT22;52402;52.670;6.750;2023-08-01T03:51:51;15.00;99.90
60293;DHT22;52402;52.670;6.750;2023-08-01T03:54:17;15.00;99.90
60293;DHT22;52402;52.670;6.750;2023-08-01T03:56:42;15.00;99.90
60293;DHT22;52402;52.670;6.750;2023-08-01T03:59:15;15.00;99.90
60293;DHT22;52402;52.670;6.750;2023-08-01T04:01:41;15.00;99.90
60293;DHT22;52402;52.670;6.750;2023-08-01T04:04:10;15.00;99.90
60293;DHT22;52402;52.670;6.750;2023-08-01T04:06:36;15.00;99.90
60293;DHT22;52402;52.670;6.750;2023-08-01T04:09:02;15.00;99.90
60293;DHT22;52402;52.670;6.750;2023-08-01T04:11:28;15.00;99.90
60293;DHT22;52402;52.670;6.750;2023-08-01T04:13:55;15.00;99.90
60293;DHT22;52402;52.670;6.750;2023-08-01T04:16:21;15.00;99.90
60293;DHT22;52402;52.670;6.750;2023-08-01T04:18:47;15.00;99.90
60293;DHT22;52402;52.670;6.750;2023-08-01T04:21:14;15.00;99.90
60293;DHT22;52402;52.670;6.750;2023-08-01T04:23:40;15.10;99.90
60293;DHT22;52402;52.670;6.750;2023-08-01T04:26:06;15.10;99.90
60293;DHT22;52402;52.670;6.750;2023-08-01T04:28:32;15.00;99.90
60293;DHT22;52402;52.670;6.750;2023-08-01T04:30:58;15.00;99.90
60293;DHT22;52402;52.670;6.750;2023-08-01T04:33:24;15.00;99.90
60293;DHT22;52402;52.670;6.750;2023-08-01T04:35:49;15.00;99.90
60293;DHT22;52402;52.670;6.750;2023-08-01T04:38:16;15.00;99.90
60293;DHT22;52402;52.670;6.750;2023-08-01T04:40:41;15.00;99.90
60293;DHT22;52402;52.670;6.750;2023-08-01T04:43:07;15.00;99.90
60293;DHT22;52402;52.670;6.750;2023-08-01T04:45:33;15.00;99.90
60293;DHT22;52402;52.670;6.750;2023-08-01T04:47:59;15.00;99.90
60293;DHT22;52402;52.670;6.750;2023-08-01T04:50:24;15.10;99.90
60293;DHT22;52402;52.670;6.750;2023-08-01T04:52:50;15.00;99.90
60293;DHT22;52402;52.670;6.750;2023-08-01T04:55:16;15.00;99.90
60293;DHT22;52402;52.670;6.750;2023-08-01T04:57:41;15.10;99.90
60293;DHT22;52402;52.670;6.750;2023-08-01T05:00:10;15.10;99.90
60293;DHT22;52402;52.670;6.750;2023-08-01T05:02:36;15.10;99.90
60293;DHT22;52402;52.670;6.750;2023-08-01T05:05:02;15.10;99.90
60293;DHT22;52402;52.670;6.750;2023-08-01T05:07:28;15.10;99.90
60293;DHT22;52402;52.670;6.750;2023-08-01T05:09:53;15.10;99.90
60293;DHT22;52402;52.670;6.750;2023-08-01T05:12:19;15.10;99.90
60293;DHT22;52402;52.670;6.750;2023-08-01T05:14:45;15.20;99.90
60293;DHT22;52402;52.670;6.750;2023-08-01T05:17:10;15.30;99.90
60293;DHT22;52402;52.670;6.750;2023-08-01T05:19:36;15.30;99.90
60293;DHT22;52402;52.670;6.750;2023-08-01T05:22:01;15.30;99.90
60293;DHT22;52402;52.670;6.750;2023-08-01T05:24:27;15.40;99.90
60293;DHT22;52402;52.670;6.750;2023-08-01T05:26:53;15.40;99.90
60293;DHT22;52402;52.670;6.750;2023-08-01T05:29:18;15.50;99.90
60293;DHT22;52402;52.670;6.750;2023-08-01T05:31:44;15.50;99.90
60293;DHT22;52402;52.670;6.750;2023-08-01T05:34:10;15.40;99.90
60293;DHT22;52402;52.670;6.750;2023-08-01T05:36:35;15.40;99.90
60293;DHT22;52402;52.670;6.750;2023-08-01T05:39:02;15.40;99.90
60293;DHT22;52402;52.670;6.750;2023-08-01T05:41:29;15.40;99.90
60293;DHT22;52402;52.670;6.750;2023-08-01T05:43:54;15.30;99.90
60293;DHT22;52402;52.670;6.750;2023-08-01T05:46:20;15.30;99.90
60293;DHT22;52402;52.670;6.750;2023-08-01T05:48:46;15.30;99.90
60293;DHT22;52402;52.670;6.750;2023-08-01T05:51:12;15.30;99.90
60293;DHT22;52402;52.670;6.750;2023-08-01T05:53:37;15.30;99.90
60293;DHT22;52402;52.670;6.750;2023-08-01T05:56:03;15.30;99.90
60293;DHT22;52402;52.670;6.750;2023-08-01T05:58:30;15.30;99.90
60293;DHT22;52402;52.670;6.750;2023-08-01T06:00:56;15.30;99.90
60293;DHT22;52402;52.670;6.750;2023-08-01T06:03:22;15.40;99.90
60293;DHT22;52402;52.670;6.750;2023-08-01T06:05:47;15.30;99.90
60293;DHT22;52402;52.670;6.750;2023-08-01T06:08:14;15.20;99.90
60293;DHT22;52402;52.670;6.750;2023-08-01T06:10:42;15.20;99.90
60293;DHT22;52402;52.670;6.750;2023-08-01T06:13:08;15.20;99.90
60293;DHT22;52402;52.670;6.750;2023-08-01T06:15:33;15.10;99.90
60293;DHT22;52402;52.670;6.750;2023-08-01T06:17:59;15.10;99.90
60293;DHT22;52402;52.670;6.750;2023-08-01T06:20:25;15.10;99.90
60293;DHT22;52402;52.670;6.750;2023-08-01T06:22:51;15.10;99.90
60293;DHT22;52402;52.670;6.750;2023-08-01T06:25:16;15.10;99.90
60293;DHT22;52402;52.670;6.750;2023-08-01T06:27:42;15.10;99.90
60293;DHT22;52402;52.670;6.750;2023-08-01T06:30:08;15.10;99.90
60293;DHT22;52402;52.670;6.750;2023-08-01T06:32:34;15.20;99.90
60293;DHT22;52402;52.670;6.750;2023-08-01T06:34:59;15.20;99.90
60293;DHT22;52402;52.670;6.750;2023-08-01T06:37:25;15.30;99.90
60293;DHT22;52402;52.670;6.750;2023-08-01T06:39:50;15.40;99.90
60293;DHT22;52402;52.670;6.750;2023-08-01T06:42:16;15.40;99.90
60293;DHT22;52402;52.670;6.750;2023-08-01T06:44:42;15.50;99.90
60293;DHT22;52402;52.670;6.750;2023-08-01T06:47:07;15.50;99.90
60293;DHT22;52402;52.670;6.750;2023-08-01T06:49:33;15.60;99.90
60293;DHT22;52402;52.670;6.750;2023-08-01T06:51:59;15.60;99.90
60293;DHT22;52402;52.670;6.750;2023-08-01T06:54:24;15.60;99.90
60293;DHT22;52402;52.670;6.750;2023-08-01T06:56:50;15.60;99.90
60293;DHT22;52402;52.670;6.750;2023-08-01T06:59:16;15.70;99.90
60293;DHT22;52402;52.670;6.750;2023-08-01T07:01:42;15.70;99.90
60293;DHT22;52402;52.670;6.750;2023-08-01T07:04:12;15.70;99.90
60293;DHT22;52402;52.670;6.750;2023-08-01T07:06:38;15.80;99.90
60293;DHT22;52402;52.670;6.750;2023-08-01T07:09:04;15.90;99.90
60293;DHT22;52402;52.670;6.750;2023-08-01T07:11:30;15.90;99.90
60293;DHT22;52402;52.670;6.750;2023-08-01T07:13:55;15.90;99.90
60293;DHT22;52402;52.670;6.750;2023-08-01T07:16:21;16.00;99.90
60293;DHT22;52402;52.670;6.750;2023-08-01T07:18:46;16.00;99.90
60293;DHT22;52402;52.670;6.750;2023-08-01T07:21:14;16.00;99.90
60293;DHT22;52402;52.670;6.750;2023-08-01T07:23:40;16.00;99.90
60293;DHT22;52402;52.670;6.750;2023-08-01T07:26:05;16.10;99.90
60293;DHT22;52402;52.670;6.750;2023-08-01T07:28:31;16.10;99.90
60293;DHT22;52402;52.670;6.750;2023-08-01T07:31:03;16.00;99.90
60293;DHT22;52402;52.670;6.750;2023-08-01T07:33:31;16.10;99.90
60293;DHT22;52402;52.670;6.750;2023-08-01T07:35:56;16.10;99.90
60293;DHT22;52402;52.670;6.750;2023-08-01T07:38:22;16.20;99.90
60293;DHT22;52402;52.670;6.750;2023-08-01T07:40:48;16.30;99.90
60293;DHT22;52402;52.670;6.750;2023-08-01T07:43:14;16.40;99.90
60293;DHT22;52402;52.670;6.750;2023-08-01T07:45:40;16.40;99.90
60293;DHT22;52402;52.670;6.750;2023-08-01T07:48:06;16.40;99.90
60293;DHT22;52402;52.670;6.750;2023-08-01T07:50:31;16.40;99.90
60293;DHT22;52402;52.670;6.750;2023-08-01T07:52:57;16.40;99.90
60293;DHT22;52402;52.670;6.750;2023-08-01T07:55:23;16.50;99.90
60293;DHT22;52402;52.670;6.750;2023-08-01T07:57:48;16.50;99.90
60293;DHT22;52402;52.670;6.750;2023-08-01T08:00:14;16.40;99.90
60293;DHT22;52402;52.670;6.750;2023-08-01T08:02:42;16.40;99.90
60293;DHT22;52402;52.670;6.750;2023-08-01T08:05:08;16.40;99.90
60293;DHT22;52402;52.670;6.750;2023-08-01T08:07:34;16.50;99.90
60293;DHT22;52402;52.670;6.750;2023-08-01T08:09:59;16.50;99.90
60293;DHT22;52402;52.670;6.750;2023-08-01T08:12:25;16.50;99.90
60293;DHT22;52402;52.670;6.750;2023-08-01T08:14:50;16.50;99.90
60293;DHT22;52402;52.670;6.750;2023-08-01T08:17:16;16.50;99.90
60293;DHT22;52402;52.670;6.750;2023-08-01T08:19:41;16.60;99.90
60293;DHT22;52402;52.670;6.750;2023-08-01T08:22:07;16.60;99.90
60293;DHT22;52402;52.670;6.750;2023-08-01T08:24:33;16.60;99.90
60293;DHT22;52402;52.670;6.750;2023-08-01T08:26:58;16.60;99.90
60293;DHT22;52402;52.670;6.750;2023-08-01T08:29:24;16.60;99.90
60293;DHT22;52402;52.670;6.750;2023-08-01T08:31:50;16.50;99.90
60293;DHT22;52402;52.670;6.750;2023-08-01T08:34:16;16.50;99.90
60293;DHT22;52402;52.670;6.750;2023-08-01T08:36:41;16.40;99.90
60293;DHT22;52402;52.670;6.750;2023-08-01T08:39:07;16.50;99.90
60293;DHT22;52402;52.670;6.750;2023-08-01T08:41:39;16.50;99.90
60293;DHT22;52402;52.670;6.750;2023-08-01T08:44:10;16.50;99.90
60293;DHT22;52402;52.670;6.750;2023-08-01T08:46:41;16.60;99.90
60293;DHT22;52402;52.670;6.750;2023-08-01T08:49:08;16.80;99.90
60293;DHT22;52402;52.670;6.750;2023-08-01T08:51:36;16.90;99.90
60293;DHT22;52402;52.670;6.750;2023-08-01T08:54:03;17.10;99.90
60293;DHT22;52402;52.670;6.750;2023-08-01T08:56:30;17.40;99.90
60293;DHT22;52402;52.670;6.750;2023-08-01T08:58:56;17.60;99.90
60293;DHT22;52402;52.670;6.750;2023-08-01T09:01:22;17.80;99.90
60293;DHT22;52402;52.670;6.750;2023-08-01T09:03:47;17.70;99.90
60293;DHT22;52402;52.670;6.750;2023-08-01T09:06:17;17.50;99.90
60293;DHT22;52402;52.670;6.750;2023-08-01T09:09:14;17.50;99.90
60293;DHT22;52402;52.670;6.750;2023-08-01T09:11:46;17.40;99.90
60293;DHT22;52402;52.670;6.750;2023-08-01T09:14:12;17.30;99.90
60293;DHT22;52402;52.670;6.750;2023-08-01T09:16:39;17.30;99.90
60293;DHT22;52402;52.670;6.750;2023-08-01T09:19:06;17.10;99.90
60293;DHT22;52402;52.670;6.750;2023-08-01T09:21:34;17.20;99.90
60293;DHT22;52402;52.670;6.750;2023-08-01T09:24:09;17.10;99.90
60293;DHT22;52402;52.670;6.750;2023-08-01T09:26:36;17.20;99.90
60293;DHT22;52402;52.670;6.750;2023-08-01T09:29:02;17.10;99.90
60293;DHT22;52402;52.670;6.750;2023-08-01T09:31:33;17.10;99.90
60293;DHT22;52402;52.670;6.750;2023-08-01T09:34:01;17.00;99.90
60293;DHT22;52402;52.670;6.750;2023-08-01T09:36:27;16.80;99.90
60293;DHT22;52402;52.670;6.750;2023-08-01T09:38:58;16.70;99.90
60293;DHT22;52402;52.670;6.750;2023-08-01T09:41:24;16.60;99.90
60293;DHT22;52402;52.670;6.750;2023-08-01T09:43:50;16.60;99.90
60293;DHT22;52402;52.670;6.750;2023-08-01T09:46:15;16.50;99.90
60293;DHT22;52402;52.670;6.750;2023-08-01T09:48:41;16.60;99.90
60293;DHT22;52402;52.670;6.750;2023-08-01T09:51:09;16.60;99.90
60293;DHT22;52402;52.670;6.750;2023-08-01T09:53:36;16.50;99.90
60293;DHT22;52402;52.670;6.750;2023-08-01T09:56:02;16.50;99.90
60293;DHT22;52402;52.670;6.750;2023-08-01T09:58:32;16.50;99.90
60293;DHT22;52402;52.670;6.750;2023-08-01T10:01:00;16.50;99.90
60293;DHT22;52402;52.670;6.750;2023-08-01T10:03:28;16.40;99.90
60293;DHT22;52402;52.670;6.750;2023-08-01T10:05:55;16.50;99.90
60293;DHT22;52402;52.670;6.750;2023-08-01T10:08:22;16.50;99.90
60293;DHT22;52402;52.670;6.750;2023-08-01T10:10:48;16.50;99.90
60293;DHT22;52402;52.670;6.750;2023-08-01T10:13:14;16.60;99.90
60293;DHT22;52402;52.670;6.750;2023-08-01T10:15:40;16.60;99.90
60293;DHT22;52402;52.670;6.750;2023-08-01T10:18:07;16.60;99.90
60293;DHT22;52402;52.670;6.750;2023-08-01T10:20:36;16.70;99.90
60293;DHT22;52402;52.670;6.750;2023-08-01T10:23:03;16.90;99.90
60293;DHT22;52402;52.670;6.750;2023-08-01T10:25:30;16.80;99.90
60293;DHT22;52402;52.670;6.750;2023-08-01T10:28:03;16.90;99.90
60293;DHT22;52402;52.670;6.750;2023-08-01T10:30:29;17.10;99.90
60293;DHT22;52402;52.670;6.750;2023-08-01T10:32:57;17.20;99.90
60293;DHT22;52402;52.670;6.750;2023-08-01T10:35:39;17.30;99.90
60293;DHT22;52402;52.670;6.750;2023-08-01T10:38:08;17.30;99.90
60293;DHT22;52402;52.670;6.750;2023-08-01T10:40:39;17.30;99.90
60293;DHT22;52402;52.670;6.750;2023-08-01T10:43:18;17.30;99.90
60293;DHT22;52402;52.670;6.750;2023-08-01T10:45:44;17.30;99.90
60293;DHT22;52402;52.670;6.750;2023-08-01T10:48:11;17.30;99.90
60293;DHT22;52402;52.670;6.750;2023-08-01T10:50:37;17.30;99.90
60293;DHT22;52402;52.670;6.750;2023-08-01T10:53:08;17.30;99.90
60293;DHT22;52402;52.670;6.750;2023-08-01T10:58:06;17.20;99.90
60293;DHT22;52402;52.670;6.750;2023-08-01T11:00:32;17.20;99.90
60293;DHT22;52402;52.670;6.750;2023-08-01T11:02:58;17.30;99.90
60293;DHT22;52402;52.670;6.750;2023-08-01T11:05:23;17.40;99.90
60293;DHT22;52402;52.670;6.750;2023-08-01T11:07:59;17.40;99.90
60293;DHT22;52402;52.670;6.750;2023-08-01T11:10:29;17.30;99.90
60293;DHT22;52402;52.670;6.750;2023-08-01T11:12:55;17.40;99.90
60293;DHT22;52402;52.670;6.750;2023-08-01T11:15:21;17.20;99.90
60293;DHT22;52402;52.670;6.750;2023-08-01T11:17:49;17.20;99.90
60293;DHT22;52402;52.670;6.750;2023-08-01T11:20:15;17.40;99.90
60293;DHT22;52402;52.670;6.750;2023-08-01T11:22:59;17.50;99.90
60293;DHT22;52402;52.670;6.750;2023-08-01T11:28:03;17.30;99.90
60293;DHT22;52402;52.670;6.750;2023-08-01T11:30:32;17.20;99.90
60293;DHT22;52402;52.670;6.750;2023-08-01T11:32:58;17.10;99.90
60293;DHT22;52402;52.670;6.750;2023-08-01T11:35:24;16.90;99.90
60293;DHT22;52402;52.670;6.750;2023-08-01T11:37:51;16.90;99.90
60293;DHT22;52402;52.670;6.750;2023-08-01T11:40:17;17.00;99.90
60293;DHT22;52402;52.670;6.750;2023-08-01T11:42:43;17.20;99.90
60293;DHT22;52402;52.670;6.750;2023-08-01T11:45:10;17.60;99.90
60293;DHT22;52402;52.670;6.750;2023-08-01T11:47:36;17.80;99.90
60293;DHT22;52402;52.670;6.750;2023-08-01T11:50:02;18.00;99.90
60293;DHT22;52402;52.670;6.750;2023-08-01T11:52:29;18.20;99.90
60293;DHT22;52402;52.670;6.750;2023-08-01T11:54:55;18.20;99.90
60293;DHT22;52402;52.670;6.750;2023-08-01T11:57:23;18.50;99.90
60293;DHT22;52402;52.670;6.750;2023-08-01T11:59:51;18.40;99.90
60293;DHT22;52402;52.670;6.750;2023-08-01T12:02:24;18.60;99.90
60293;DHT22;52402;52.670;6.750;2023-08-01T12:04:50;19.00;99.90
60293;DHT22;52402;52.670;6.750;2023-08-01T12:07:16;19.00;99.90
60293;DHT22;52402;52.670;6.750;2023-08-01T12:09:43;19.00;99.90
60293;DHT22;52402;52.670;6.750;2023-08-01T12:12:09;19.00;99.90
60293;DHT22;52402;52.670;6.750;2023-08-01T12:14:41;19.20;99.90
60293;DHT22;52402;52.670;6.750;2023-08-01T12:17:07;19.50;99.90
60293;DHT22;52402;52.670;6.750;2023-08-01T12:19:32;19.60;99.90
60293;DHT22;52402;52.670;6.750;2023-08-01T12:21:59;19.50;99.90
60293;DHT22;52402;52.670;6.750;2023-08-01T12:24:25;19.80;99.90
60293;DHT22;52402;52.670;6.750;2023-08-01T12:26:51;19.80;99.90
60293;DHT22;52402;52.670;6.750;2023-08-01T12:29:17;20.10;99.90
60293;DHT22;52402;52.670;6.750;2023-08-01T12:31:42;20.50;99.90
60293;DHT22;52402;52.670;6.750;2023-08-01T12:34:08;20.70;99.90
60293;DHT22;52402;52.670;6.750;2023-08-01T12:36:34;20.50;99.90
60293;DHT22;52402;52.670;6.750;2023-08-01T12:38:59;20.40;99.90
60293;DHT22;52402;52.670;6.750;2023-08-01T12:41:25;20.10;99.90
60293;DHT22;52402;52.670;6.750;2023-08-01T12:43:51;19.70;99.90
60293;DHT22;52402;52.670;6.750;2023-08-01T12:46:16;19.60;99.90
60293;DHT22;52402;52.670;6.750;2023-08-01T12:48:43;19.40;99.90
60293;DHT22;52402;52.670;6.750;2023-08-01T12:51:09;19.50;99.90
60293;DHT22;52402;52.670;6.750;2023-08-01T12:53:34;19.50;99.90
60293;DHT22;52402;52.670;6.750;2023-08-01T12:56:00;19.30;99.90
60293;DHT22;52402;52.670;6.750;2023-08-01T12:58:26;19.60;99.90
60293;DHT22;52402;52.670;6.750;2023-08-01T13:00:51;19.80;99.90
60293;DHT22;52402;52.670;6.750;2023-08-01T13:03:17;20.10;99.90
60293;DHT22;52402;52.670;6.750;2023-08-01T13:05:43;20.30;99.90
60293;DHT22;52402;52.670;6.750;2023-08-01T13:08:09;20.50;99.90
60293;DHT22;52402;52.670;6.750;2023-08-01T13:10:36;20.20;99.90
60293;DHT22;52402;52.670;6.750;2023-08-01T13:13:02;20.40;99.90
60293;DHT22;52402;52.670;6.750;2023-08-01T13:15:29;21.00;99.90
60293;DHT22;52402;52.670;6.750;2023-08-01T13:17:54;21.20;99.90
60293;DHT22;52402;52.670;6.750;2023-08-01T13:20:20;21.30;99.90
60293;DHT22;52402;52.670;6.750;2023-08-01T13:22:48;21.60;99.90
60293;DHT22;52402;52.670;6.750;2023-08-01T13:25:14;21.60;99.90
60293;DHT22;52402;52.670;6.750;2023-08-01T13:27:40;21.60;99.90
60293;DHT22;52402;52.670;6.750;2023-08-01T13:30:06;21.90;99.90
60293;DHT22;52402;52.670;6.750;2023-08-01T13:32:32;22.10;99.90
60293;DHT22;52402;52.670;6.750;2023-08-01T13:34:57;22.40;99.90
60293;DHT22;52402;52.670;6.750;2023-08-01T13:37:23;22.60;99.90
60293;DHT22;52402;52.670;6.750;2023-08-01T13:39:49;22.60;99.90
60293;DHT22;52402;52.670;6.750;2023-08-01T13:42:14;22.20;99.90
60293;DHT22;52402;52.670;6.750;2023-08-01T13:44:40;21.90;99.90
60293;DHT22;52402;52.670;6.750;2023-08-01T13:47:06;21.60;99.90
60293;DHT22;52402;52.670;6.750;2023-08-01T13:49:32;21.20;99.90
60293;DHT22;52402;52.670;6.750;2023-08-01T13:51:58;20.80;99.90
60293;DHT22;52402;52.670;6.750;2023-08-01T13:54:24;20.50;99.90
60293;DHT22;52402;52.670;6.750;2023-08-01T13:56:50;20.40;99.90
60293;DHT22;52402;52.670;6.750;2023-08-01T13:59:15;20.30;99.90
60293;DHT22;52402;52.670;6.750;2023-08-01T14:01:41;20.10;99.90
60293;DHT22;52402;52.670;6.750;2023-08-01T14:04:07;20.20;99.90
60293;DHT22;52402;52.670;6.750;2023-08-01T14:06:32;20.10;99.90
60293;DHT22;52402;52.670;6.750;2023-08-01T14:08:58;19.80;99.90
60293;DHT22;52402;52.670;6.750;2023-08-01T14:11:23;19.70;99.90
60293;DHT22;52402;52.670;6.750;2023-08-01T14:13:49;19.30;99.90
60293;DHT22;52402;52.670;6.750;2023-08-01T14:16:15;18.90;99.90
60293;DHT22;52402;52.670;6.750;2023-08-01T14:18:42;18.40;99.90
60293;DHT22;52402;52.670;6.750;2023-08-01T14:21:09;18.20;99.90
60293;DHT22;52402;52.670;6.750;2023-08-01T14:23:35;18.20;99.90
60293;DHT22;52402;52.670;6.750;2023-08-01T14:26:02;18.00;99.90
60293;DHT22;52402;52.670;6.750;2023-08-01T14:28:29;18.10;99.90
60293;DHT22;52402;52.670;6.750;2023-08-01T14:30:55;18.20;99.90
60293;DHT22;52402;52.670;6.750;2023-08-01T14:33:20;18.60;99.90
60293;DHT22;52402;52.670;6.750;2023-08-01T14:35:46;18.70;99.90
60293;DHT22;52402;52.670;6.750;2023-08-01T14:38:12;19.10;99.90
60293;DHT22;52402;52.670;6.750;2023-08-01T14:40:37;19.40;99.90
60293;DHT22;52402;52.670;6.750;2023-08-01T14:43:04;19.70;99.90
60293;DHT22;52402;52.670;6.750;2023-08-01T14:45:31;20.00;99.90
60293;DHT22;52402;52.670;6.750;2023-08-01T14:47:57;20.20;99.90
60293;DHT22;52402;52.670;6.750;2023-08-01T14:50:22;20.30;99.90
60293;DHT22;52402;52.670;6.750;2023-08-01T14:52:48;20.70;99.90
60293;DHT22;52402;52.670;6.750;2023-08-01T14:55:14;20.40;99.90
60293;DHT22;52402;52.670;6.750;2023-08-01T14:57:39;20.40;99.90
60293;DHT22;52402;52.670;6.750;2023-08-01T15:00:05;20.20;99.90
60293;DHT22;52402;52.670;6.750;2023-08-01T15:02:31;20.10;99.90
60293;DHT22;52402;52.670;6.750;2023-08-01T15:04:57;20.20;99.90
60293;DHT22;52402;52.670;6.750;2023-08-01T15:07:23;20.00;99.90
60293;DHT22;52402;52.670;6.750;2023-08-01T15:09:50;19.80;99.90
60293;DHT22;52402;52.670;6.750;2023-08-01T15:12:16;19.80;99.90
60293;DHT22;52402;52.670;6.750;2023-08-01T15:14:42;20.00;99.90
60293;DHT22;52402;52.670;6.750;2023-08-01T15:17:08;19.90;99.90
60293;DHT22;52402;52.670;6.750;2023-08-01T15:19:35;19.90;99.90
60293;DHT22;52402;52.670;6.750;2023-08-01T15:22:01;19.80;99.90
60293;DHT22;52402;52.670;6.750;2023-08-01T15:24:29;20.00;99.90
60293;DHT22;52402;52.670;6.750;2023-08-01T15:26:55;20.20;99.90
60293;DHT22;52402;52.670;6.750;2023-08-01T15:29:21;20.20;99.90
60293;DHT22;52402;52.670;6.750;2023-08-01T15:31:47;20.70;99.90